sensor_id;sensor_type;location;lat;lon;timestamp;P1;durP1;ratioP1;P2;durP2;ratioP2
7919;SDS011;18778;47.610;9.776;2024-02-21T00:00:39;7.47;;;5.40;;
7919;SDS011;18778;47.610;9.776;2024-02-21T00:03:06;6.80;;;5.20;;
7919;SDS011;18778;47.610;9.776;2024-02-21T00:05:32;10.13;;;6.50;;
7919;SDS011;18778;47.610;9.776;2024-02-21T00:08:02;8.70;;;6.37;;
7919;SDS011;18778;47.610;9.776;2024-02-21T00:10:30;7.80;;;6.63;;
7919;SDS011;18778;47.610;9.776;2024-02-21T00:13:00;9.13;;;6.23;;
7919;SDS011;18778;47.610;9.776;2024-02-21T00:15:26;10.70;;;5.77;;
7919;SDS011;18778;47.610;9.776;2024-02-21T00:17:51;7.60;;;5.83;;
7919;SDS011;18778;47.610;9.776;2024-02-21T00:20:17;11.27;;;5.77;;
7919;SDS011;18778;47.610;9.776;2024-02-21T00:22:43;13.93;;;5.77;;
7919;SDS011;18778;47.610;9.776;2024-02-21T00:25:09;7.40;;;5.67;;
7919;SDS011;18778;47.610;9.776;2024-02-21T00:27:34;8.63;;;5.83;;
7919;SDS011;18778;47.610;9.776;2024-02-21T00:30:00;8.47;;;5.20;;
7919;SDS011;18778;47.610;9.776;2024-02-21T00:32:26;6.87;;;5.20;;
7919;SDS011;18778;47.610;9.776;2024-02-21T00:34:51;15.13;;;6.60;;
7919;SDS011;18778;47.610;9.776;2024-02-21T00:37:17;34.57;;;16.00;;
7919;SDS011;18778;47.610;9.776;2024-02-21T00:39:43;17.47;;;9.30;;
7919;SDS011;18778;47.610;9.776;2024-02-21T00:42:08;15.63;;;9.30;;
7919;SDS011;18778;47.610;9.776;2024-02-21T00:44:34;21.47;;;9.93;;
7919;SDS011;18778;47.610;9.776;2024-02-21T00:46:59;14.60;;;8.90;;
7919;SDS011;18778;47.610;9.776;2024-02-21T00:49:25;11.53;;;7.73;;
7919;SDS011;18778;47.610;9.776;2024-02-21T00:51:51;12.63;;;6.10;;
7919;SDS011;18778;47.610;9.776;2024-02-21T00:54:16;8.37;;;5.27;;
7919;SDS011;18778;47.610;9.776;2024-02-21T00:56:42;8.57;;;5.03;;
7919;SDS011;18778;47.610;9.776;2024-02-21T00:59:08;9.23;;;5.30;;
7919;SDS011;18778;47.610;9.776;2024-02-21T01:01:34;8.77;;;5.50;;
7919;SDS011;18778;47.610;9.776;2024-02-21T01:03:59;7.77;;;5.70;;
7919;SDS011;18778;47.610;9.776;2024-02-21T01:06:25;8.27;;;5.30;;
7919;SDS011;18778;47.610;9.776;2024-02-21T01:08:51;8.50;;;5.40;;
7919;SDS011;18778;47.610;9.776;2024-02-21T01:11:16;9.03;;;6.00;;
7919;SDS011;18778;47.610;9.776;2024-02-21T01:13:42;11.13;;;5.10;;
7919;SDS011;18778;47.610;9.776;2024-02-21T01:16:08;7.57;;;5.23;;
7919;SDS011;18778;47.610;9.776;2024-02-21T01:18:33;9.27;;;5.47;;
7919;SDS011;18778;47.610;9.776;2024-02-21T01:20:59;9.17;;;5.33;;
7919;SDS011;18778;47.610;9.776;2024-02-21T01:23:25;5.77;;;5.27;;
7919;SDS011;18778;47.610;9.776;2024-02-21T01:25:51;5.80;;;5.23;;
7919;SDS011;18778;47.610;9.776;2024-02-21T01:28:16;7.93;;;5.27;;
7919;SDS011;18778;47.610;9.776;2024-02-21T01:30:43;6.40;;;5.57;;
7919;SDS011;18778;47.610;9.776;2024-02-21T01:33:08;6.87;;;4.43;;
7919;SDS011;18778;47.610;9.776;2024-02-21T01:35:34;7.50;;;5.27;;
7919;SDS011;18778;47.610;9.776;2024-02-21T01:38:00;6.97;;;5.37;;
7919;SDS011;18778;47.610;9.776;2024-02-21T01:40:26;8.07;;;5.00;;
7919;SDS011;18778;47.610;9.776;2024-02-21T01:42:53;7.37;;;4.70;;
7919;SDS011;18778;47.610;9.776;2024-02-21T01:45:20;6.30;;;4.70;;
7919;SDS011;18778;47.610;9.776;2024-02-21T01:47:46;5.40;;;4.90;;
7919;SDS011;18778;47.610;9.776;2024-02-21T01:50:12;6.70;;;4.50;;
7919;SDS011;18778;47.610;9.776;2024-02-21T01:52:39;5.57;;;4.97;;
7919;SDS011;18778;47.610;9.776;2024-02-21T01:55:05;8.60;;;5.23;;
7919;SDS011;18778;47.610;9.776;2024-02-21T01:57:32;5.03;;;4.30;;
7919;SDS011;18778;47.610;9.776;2024-02-21T01:59:58;4.80;;;4.13;;
7919;SDS011;18778;47.610;9.776;2024-02-21T02:02:24;5.43;;;4.37;;
7919;SDS011;18778;47.610;9.776;2024-02-21T02:04:49;6.30;;;4.47;;
7919;SDS011;18778;47.610;9.776;2024-02-21T02:07:16;6.27;;;4.27;;
7919;SDS011;18778;47.610;9.776;2024-02-21T02:09:42;4.67;;;4.27;;
7919;SDS011;18778;47.610;9.776;2024-02-21T02:12:08;4.57;;;4.17;;
7919;SDS011;18778;47.610;9.776;2024-02-21T02:14:33;5.60;;;5.07;;
7919;SDS011;18778;47.610;9.776;2024-02-21T02:16:59;6.40;;;3.97;;
7919;SDS011;18778;47.610;9.776;2024-02-21T02:19:25;4.27;;;3.63;;
7919;SDS011;18778;47.610;9.776;2024-02-21T02:21:50;4.73;;;3.57;;
7919;SDS011;18778;47.610;9.776;2024-02-21T02:24:32;4.50;;;3.87;;
7919;SDS011;18778;47.610;9.776;2024-02-21T02:26:58;3.53;;;3.23;;
7919;SDS011;18778;47.610;9.776;2024-02-21T02:29:23;5.20;;;3.30;;
7919;SDS011;18778;47.610;9.776;2024-02-21T02:31:49;4.93;;;3.33;;
7919;SDS011;18778;47.610;9.776;2024-02-21T02:34:15;3.10;;;2.90;;
7919;SDS011;18778;47.610;9.776;2024-02-21T02:36:40;3.20;;;2.90;;
7919;SDS011;18778;47.610;9.776;2024-02-21T02:39:06;2.93;;;2.70;;
7919;SDS011;18778;47.610;9.776;2024-02-21T02:41:34;3.20;;;2.90;;
7919;SDS011;18778;47.610;9.776;2024-02-21T02:44:00;3.03;;;2.73;;
7919;SDS011;18778;47.610;9.776;2024-02-21T02:46:26;4.33;;;2.97;;
7919;SDS011;18778;47.610;9.776;2024-02-21T02:48:51;2.93;;;2.73;;
7919;SDS011;18778;47.610;9.776;2024-02-21T02:51:17;4.07;;;2.80;;
7919;SDS011;18778;47.610;9.776;2024-02-21T02:53:43;6.67;;;3.03;;
7919;SDS011;18778;47.610;9.776;2024-02-21T02:56:13;4.73;;;2.50;;
7919;SDS011;18778;47.610;9.776;2024-02-21T02:58:39;3.57;;;2.37;;
7919;SDS011;18778;47.610;9.776;2024-02-21T03:01:06;2.50;;;2.30;;
7919;SDS011;18778;47.610;9.776;2024-02-21T03:03:32;1.90;;;1.70;;
7919;SDS011;18778;47.610;9.776;2024-02-21T03:05:58;2.37;;;1.90;;
7919;SDS011;18778;47.610;9.776;2024-02-21T03:08:23;2.30;;;1.53;;
7919;SDS011;18778;47.610;9.776;2024-02-21T03:10:49;1.77;;;1.70;;
7919;SDS011;18778;47.610;9.776;2024-02-21T03:13:14;1.70;;;1.60;;
7919;SDS011;18778;47.610;9.776;2024-02-21T03:15:40;1.70;;;1.60;;
7919;SDS011;18778;47.610;9.776;2024-02-21T03:18:05;2.73;;;1.63;;
7919;SDS011;18778;47.610;9.776;2024-02-21T03:20:31;1.87;;;1.77;;
7919;SDS011;18778;47.610;9.776;2024-02-21T03:22:57;1.80;;;1.70;;
7919;SDS011;18778;47.610;9.776;2024-02-21T03:25:22;2.57;;;1.20;;
7919;SDS011;18778;47.610;9.776;2024-02-21T03:27:48;1.57;;;1.47;;
7919;SDS011;18778;47.610;9.776;2024-02-21T03:30:14;1.23;;;1.23;;
7919;SDS011;18778;47.610;9.776;2024-02-21T03:32:40;2.10;;;1.60;;
7919;SDS011;18778;47.610;9.776;2024-02-21T03:35:05;2.17;;;1.87;;
7919;SDS011;18778;47.610;9.776;2024-02-21T03:37:31;1.83;;;1.73;;
7919;SDS011;18778;47.610;9.776;2024-02-21T03:39:57;1.50;;;1.40;;
7919;SDS011;18778;47.610;9.776;2024-02-21T03:42:22;1.53;;;1.53;;
7919;SDS011;18778;47.610;9.776;2024-02-21T03:44:48;4.90;;;1.10;;
7919;SDS011;18778;47.610;9.776;2024-02-21T03:47:13;1.10;;;1.10;;
7919;SDS011;18778;47.610;9.776;2024-02-21T03:49:39;1.40;;;1.30;;
7919;SDS011;18778;47.610;9.776;2024-02-21T03:52:04;1.20;;;1.20;;
7919;SDS011;18778;47.610;9.776;2024-02-21T03:54:30;3.23;;;1.53;;
7919;SDS011;18778;47.610;9.776;2024-02-21T03:56:56;1.67;;;1.57;;
7919;SDS011;18778;47.610;9.776;2024-02-21T03:59:22;1.70;;;1.60;;
7919;SDS011;18778;47.610;9.776;2024-02-21T04:01:51;2.40;;;1.70;;
7919;SDS011;18778;47.610;9.776;2024-02-21T04:04:17;2.93;;;1.87;;
7919;SDS011;18778;47.610;9.776;2024-02-21T04:06:49;1.90;;;1.80;;
7919;SDS011;18778;47.610;9.776;2024-02-21T04:09:15;2.20;;;2.00;;
7919;SDS011;18778;47.610;9.776;2024-02-21T04:11:41;3.00;;;1.70;;
7919;SDS011;18778;47.610;9.776;2024-02-21T04:14:07;1.50;;;1.43;;
7919;SDS011;18778;47.610;9.776;2024-02-21T04:16:32;1.13;;;1.13;;
7919;SDS011;18778;47.610;9.776;2024-02-21T04:18:59;1.60;;;1.50;;
7919;SDS011;18778;47.610;9.776;2024-02-21T04:21:24;1.43;;;1.33;;
7919;SDS011;18778;47.610;9.776;2024-02-21T04:23:50;1.30;;;1.30;;
7919;SDS011;18778;47.610;9.776;2024-02-21T04:26:15;1.53;;;1.13;;
7919;SDS011;18778;47.610;9.776;2024-02-21T04:28:41;2.60;;;1.20;;
7919;SDS011;18778;47.610;9.776;2024-02-21T04:31:09;1.77;;;1.20;;
7919;SDS011;18778;47.610;9.776;2024-02-21T04:33:35;1.20;;;1.10;;
7919;SDS011;18778;47.610;9.776;2024-02-21T04:36:00;1.17;;;1.17;;
7919;SDS011;18778;47.610;9.776;2024-02-21T04:38:27;1.10;;;1.10;;
7919;SDS011;18778;47.610;9.776;2024-02-21T04:40:53;1.20;;;1.20;;
7919;SDS011;18778;47.610;9.776;2024-02-21T04:43:20;2.10;;;1.30;;
7919;SDS011;18778;47.610;9.776;2024-02-21T04:45:45;1.13;;;1.13;;
7919;SDS011;18778;47.610;9.776;2024-02-21T04:48:11;2.13;;;1.40;;
7919;SDS011;18778;47.610;9.776;2024-02-21T04:50:36;2.23;;;1.57;;
7919;SDS011;18778;47.610;9.776;2024-02-21T04:53:02;6.43;;;5.00;;
7919;SDS011;18778;47.610;9.776;2024-02-21T04:55:27;4.23;;;3.83;;
7919;SDS011;18778;47.610;9.776;2024-02-21T04:57:53;6.57;;;4.10;;
7919;SDS011;18778;47.610;9.776;2024-02-21T05:00:19;7.07;;;3.67;;
7919;SDS011;18778;47.610;9.776;2024-02-21T05:02:44;8.10;;;4.33;;
7919;SDS011;18778;47.610;9.776;2024-02-21T05:05:10;6.17;;;3.83;;
7919;SDS011;18778;47.610;9.776;2024-02-21T05:07:36;4.40;;;3.30;;
7919;SDS011;18778;47.610;9.776;2024-02-21T05:10:01;4.83;;;3.10;;
7919;SDS011;18778;47.610;9.776;2024-02-21T05:12:27;3.50;;;3.20;;
7919;SDS011;18778;47.610;9.776;2024-02-21T05:14:53;8.90;;;5.93;;
7919;SDS011;18778;47.610;9.776;2024-02-21T05:17:18;19.50;;;9.30;;
7919;SDS011;18778;47.610;9.776;2024-02-21T05:19:44;35.87;;;14.50;;
7919;SDS011;18778;47.610;9.776;2024-02-21T05:22:10;19.97;;;8.03;;
7919;SDS011;18778;47.610;9.776;2024-02-21T05:24:36;8.47;;;4.53;;
7919;SDS011;18778;47.610;9.776;2024-02-21T05:27:04;3.17;;;2.20;;
7919;SDS011;18778;47.610;9.776;2024-02-21T05:29:30;2.63;;;2.00;;
7919;SDS011;18778;47.610;9.776;2024-02-21T05:31:56;1.80;;;1.70;;
7919;SDS011;18778;47.610;9.776;2024-02-21T05:34:22;2.07;;;1.97;;
7919;SDS011;18778;47.610;9.776;2024-02-21T05:36:48;2.30;;;1.80;;
7919;SDS011;18778;47.610;9.776;2024-02-21T05:39:16;1.90;;;1.80;;
7919;SDS011;18778;47.610;9.776;2024-02-21T05:41:42;2.00;;;1.87;;
7919;SDS011;18778;47.610;9.776;2024-02-21T05:44:08;2.60;;;1.80;;
7919;SDS011;18778;47.610;9.776;2024-02-21T05:46:33;1.77;;;1.67;;
7919;SDS011;18778;47.610;9.776;2024-02-21T05:49:00;2.00;;;1.90;;
7919;SDS011;18778;47.610;9.776;2024-02-21T05:51:26;2.83;;;2.20;;
7919;SDS011;18778;47.610;9.776;2024-02-21T05:53:51;2.27;;;2.00;;
7919;SDS011;18778;47.610;9.776;2024-02-21T05:56:17;2.20;;;2.03;;
7919;SDS011;18778;47.610;9.776;2024-02-21T05:58:43;2.97;;;2.77;;
7919;SDS011;18778;47.610;9.776;2024-02-21T06:01:08;4.53;;;3.77;;
7919;SDS011;18778;47.610;9.776;2024-02-21T06:03:34;3.13;;;2.83;;
7919;SDS011;18778;47.610;9.776;2024-02-21T06:06:03;2.50;;;2.30;;
7919;SDS011;18778;47.610;9.776;2024-02-21T06:08:30;2.20;;;2.00;;
7919;SDS011;18778;47.610;9.776;2024-02-21T06:10:55;2.03;;;1.93;;
7919;SDS011;18778;47.610;9.776;2024-02-21T06:13:21;2.30;;;2.10;;
7919;SDS011;18778;47.610;9.776;2024-02-21T06:15:48;2.70;;;2.50;;
7919;SDS011;18778;47.610;9.776;2024-02-21T06:18:15;3.00;;;2.63;;
7919;SDS011;18778;47.610;9.776;2024-02-21T06:20:43;3.10;;;2.83;;
7919;SDS011;18778;47.610;9.776;2024-02-21T06:23:09;4.53;;;2.80;;
7919;SDS011;18778;47.610;9.776;2024-02-21T06:25:36;2.70;;;2.50;;
7919;SDS011;18778;47.610;9.776;2024-02-21T06:28:02;3.13;;;2.30;;
7919;SDS011;18778;47.610;9.776;2024-02-21T06:30:27;2.17;;;2.00;;
7919;SDS011;18778;47.610;9.776;2024-02-21T06:32:53;3.70;;;2.17;;
7919;SDS011;18778;47.610;9.776;2024-02-21T06:35:21;3.13;;;2.00;;
7919;SDS011;18778;47.610;9.776;2024-02-21T06:37:47;2.00;;;1.90;;
7919;SDS011;18778;47.610;9.776;2024-02-21T06:40:16;6.83;;;2.23;;
7919;SDS011;18778;47.610;9.776;2024-02-21T06:42:42;5.73;;;3.20;;
7919;SDS011;18778;47.610;9.776;2024-02-21T06:45:08;2.30;;;2.10;;
7919;SDS011;18778;47.610;9.776;2024-02-21T06:47:33;2.10;;;2.00;;
7919;SDS011;18778;47.610;9.776;2024-02-21T06:49:59;3.33;;;2.60;;
7919;SDS011;18778;47.610;9.776;2024-02-21T06:52:25;2.80;;;2.50;;
7919;SDS011;18778;47.610;9.776;2024-02-21T06:54:50;2.23;;;2.13;;
7919;SDS011;18778;47.610;9.776;2024-02-21T06:57:16;2.13;;;1.80;;
7919;SDS011;18778;47.610;9.776;2024-02-21T06:59:41;2.50;;;2.30;;
7919;SDS011;18778;47.610;9.776;2024-02-21T07:02:07;1.70;;;1.60;;
7919;SDS011;18778;47.610;9.776;2024-02-21T07:04:33;1.83;;;1.73;;
7919;SDS011;18778;47.610;9.776;2024-02-21T07:06:59;1.70;;;1.60;;
7919;SDS011;18778;47.610;9.776;2024-02-21T07:09:25;1.90;;;1.80;;
7919;SDS011;18778;47.610;9.776;2024-02-21T07:11:50;2.00;;;1.50;;
7919;SDS011;18778;47.610;9.776;2024-02-21T07:14:17;1.37;;;1.37;;
7919;SDS011;18778;47.610;9.776;2024-02-21T07:16:43;1.63;;;1.40;;
7919;SDS011;18778;47.610;9.776;2024-02-21T07:19:09;1.70;;;1.60;;
7919;SDS011;18778;47.610;9.776;2024-02-21T07:21:34;2.37;;;1.43;;
7919;SDS011;18778;47.610;9.776;2024-02-21T07:24:03;1.50;;;1.40;;
7919;SDS011;18778;47.610;9.776;2024-02-21T07:26:29;1.30;;;1.30;;
7919;SDS011;18778;47.610;9.776;2024-02-21T07:28:56;1.37;;;1.20;;
7919;SDS011;18778;47.610;9.776;2024-02-21T07:31:21;2.50;;;1.20;;
7919;SDS011;18778;47.610;9.776;2024-02-21T07:33:47;1.10;;;1.00;;
7919;SDS011;18778;47.610;9.776;2024-02-21T07:36:14;2.90;;;1.27;;
7919;SDS011;18778;47.610;9.776;2024-02-21T07:38:40;1.00;;;1.00;;
7919;SDS011;18778;47.610;9.776;2024-02-21T07:41:06;0.97;;;0.97;;
7919;SDS011;18778;47.610;9.776;2024-02-21T07:43:32;1.07;;;1.07;;
7919;SDS011;18778;47.610;9.776;2024-02-21T07:45:57;0.90;;;0.90;;
7919;SDS011;18778;47.610;9.776;2024-02-21T07:48:23;1.10;;;1.10;;
7919;SDS011;18778;47.610;9.776;2024-02-21T07:50:51;0.80;;;0.80;;
7919;SDS011;18778;47.610;9.776;2024-02-21T07:53:17;0.93;;;0.93;;
7919;SDS011;18778;47.610;9.776;2024-02-21T07:55:43;1.70;;;0.80;;
7919;SDS011;18778;47.610;9.776;2024-02-21T07:58:08;1.00;;;1.00;;
7919;SDS011;18778;47.610;9.776;2024-02-21T08:00:34;1.83;;;1.13;;
7919;SDS011;18778;47.610;9.776;2024-02-21T08:02:59;1.43;;;1.43;;
7919;SDS011;18778;47.610;9.776;2024-02-21T08:05:25;1.30;;;1.17;;
7919;SDS011;18778;47.610;9.776;2024-02-21T08:07:50;1.10;;;1.10;;
7919;SDS011;18778;47.610;9.776;2024-02-21T08:10:16;1.10;;;1.10;;
7919;SDS011;18778;47.610;9.776;2024-02-21T08:12:42;1.10;;;1.10;;
7919;SDS011;18778;47.610;9.776;2024-02-21T08:15:07;1.80;;;1.40;;
7919;SDS011;18778;47.610;9.776;2024-02-21T08:17:35;1.23;;;1.17;;
7919;SDS011;18778;47.610;9.776;2024-02-21T08:20:01;1.20;;;1.00;;
7919;SDS011;18778;47.610;9.776;2024-02-21T08:22:27;1.10;;;1.10;;
7919;SDS011;18778;47.610;9.776;2024-02-21T08:24:53;1.00;;;1.00;;
7919;SDS011;18778;47.610;9.776;2024-02-21T08:27:19;1.30;;;1.00;;
7919;SDS011;18778;47.610;9.776;2024-02-21T08:29:44;1.10;;;1.00;;
7919;SDS011;18778;47.610;9.776;2024-02-21T08:32:10;1.67;;;0.90;;
7919;SDS011;18778;47.610;9.776;2024-02-21T08:34:35;1.97;;;0.90;;
7919;SDS011;18778;47.610;9.776;2024-02-21T08:37:01;1.00;;;1.00;;
7919;SDS011;18778;47.610;9.776;2024-02-21T08:39:26;1.70;;;0.90;;
7919;SDS011;18778;47.610;9.776;2024-02-21T08:41:53;0.90;;;0.90;;
7919;SDS011;18778;47.610;9.776;2024-02-21T08:44:19;1.07;;;1.07;;
7919;SDS011;18778;47.610;9.776;2024-02-21T08:46:44;0.90;;;0.90;;
7919;SDS011;18778;47.610;9.776;2024-02-21T08:49:12;2.67;;;1.27;;
7919;SDS011;18778;47.610;9.776;2024-02-21T08:51:38;2.70;;;1.03;;
7919;SDS011;18778;47.610;9.776;2024-02-21T08:54:04;1.10;;;1.10;;
7919;SDS011;18778;47.610;9.776;2024-02-21T08:56:30;1.10;;;1.10;;
7919;SDS011;18778;47.610;9.776;2024-02-21T08:58:56;1.10;;;1.10;;
7919;SDS011;18778;47.610;9.776;2024-02-21T09:01:22;1.17;;;1.10;;
7919;SDS011;18778;47.610;9.776;2024-02-21T09:03:48;1.10;;;1.00;;
7919;SDS011;18778;47.610;9.776;2024-02-21T09:06:18;1.30;;;1.20;;
7919;SDS011;18778;47.610;9.776;2024-02-21T09:08:45;0.90;;;0.90;;
7919;SDS011;18778;47.610;9.776;2024-02-21T09:11:11;2.70;;;1.17;;
7919;SDS011;18778;47.610;9.776;2024-02-21T09:13:36;1.40;;;1.30;;
7919;SDS011;18778;47.610;9.776;2024-02-21T09:16:02;1.53;;;1.20;;
7919;SDS011;18778;47.610;9.776;2024-02-21T09:18:28;1.33;;;1.20;;
7919;SDS011;18778;47.610;9.776;2024-02-21T09:20:54;2.50;;;1.20;;
7919;SDS011;18778;47.610;9.776;2024-02-21T09:23:20;2.80;;;1.40;;
7919;SDS011;18778;47.610;9.776;2024-02-21T09:25:48;1.20;;;1.20;;
7919;SDS011;18778;47.610;9.776;2024-02-21T09:28:14;1.97;;;1.17;;
7919;SDS011;18778;47.610;9.776;2024-02-21T09:30:42;1.60;;;1.00;;
7919;SDS011;18778;47.610;9.776;2024-02-21T09:33:08;1.10;;;1.00;;
7919;SDS011;18778;47.610;9.776;2024-02-21T09:35:34;3.43;;;1.70;;
7919;SDS011;18778;47.610;9.776;2024-02-21T09:38:01;3.10;;;1.20;;
7919;SDS011;18778;47.610;9.776;2024-02-21T09:40:26;3.70;;;1.20;;
7919;SDS011;18778;47.610;9.776;2024-02-21T09:42:55;1.23;;;1.23;;
7919;SDS011;18778;47.610;9.776;2024-02-21T09:45:28;1.20;;;1.10;;
7919;SDS011;18778;47.610;9.776;2024-02-21T09:50:22;1.30;;;1.20;;
7919;SDS011;18778;47.610;9.776;2024-02-21T09:52:53;1.10;;;1.10;;
7919;SDS011;18778;47.610;9.776;2024-02-21T09:55:20;1.10;;;1.10;;
7919;SDS011;18778;47.610;9.776;2024-02-21T09:57:46;1.33;;;1.27;;
7919;SDS011;18778;47.610;9.776;2024-02-21T10:00:12;1.90;;;1.20;;
7919;SDS011;18778;47.610;9.776;2024-02-21T10:02:46;1.80;;;1.30;;
7919;SDS011;18778;47.610;9.776;2024-02-21T10:05:12;2.27;;;1.30;;
7919;SDS011;18778;47.610;9.776;2024-02-21T10:07:38;1.67;;;1.50;;
7919;SDS011;18778;47.610;9.776;2024-02-21T10:10:04;1.73;;;1.30;;
7919;SDS011;18778;47.610;9.776;2024-02-21T10:12:30;4.53;;;1.33;;
7919;SDS011;18778;47.610;9.776;2024-02-21T10:14:59;1.30;;;1.30;;
7919;SDS011;18778;47.610;9.776;2024-02-21T10:17:26;1.33;;;1.30;;
7919;SDS011;18778;47.610;9.776;2024-02-21T10:19:52;1.13;;;1.10;;
7919;SDS011;18778;47.610;9.776;2024-02-21T10:22:18;2.27;;;1.40;;
7919;SDS011;18778;47.610;9.776;2024-02-21T10:24:45;2.47;;;1.93;;
7919;SDS011;18778;47.610;9.776;2024-02-21T10:27:11;2.13;;;1.20;;
7919;SDS011;18778;47.610;9.776;2024-02-21T10:29:37;1.60;;;1.50;;
7919;SDS011;18778;47.610;9.776;2024-02-21T10:32:07;4.33;;;1.30;;
7919;SDS011;18778;47.610;9.776;2024-02-21T10:34:34;1.40;;;1.40;;
7919;SDS011;18778;47.610;9.776;2024-02-21T10:37:07;1.40;;;1.30;;
7919;SDS011;18778;47.610;9.776;2024-02-21T10:39:41;2.03;;;1.60;;
7919;SDS011;18778;47.610;9.776;2024-02-21T10:42:07;1.60;;;1.50;;
7919;SDS011;18778;47.610;9.776;2024-02-21T10:44:38;1.57;;;1.47;;
7919;SDS011;18778;47.610;9.776;2024-02-21T10:47:07;2.30;;;2.13;;
7919;SDS011;18778;47.610;9.776;2024-02-21T10:49:36;1.83;;;1.57;;
7919;SDS011;18778;47.610;9.776;2024-02-21T10:52:06;1.60;;;1.47;;
7919;SDS011;18778;47.610;9.776;2024-02-21T10:54:43;1.67;;;1.57;;
7919;SDS011;18778;47.610;9.776;2024-02-21T10:57:11;1.57;;;1.47;;
7919;SDS011;18778;47.610;9.776;2024-02-21T10:59:38;1.73;;;1.50;;
7919;SDS011;18778;47.610;9.776;2024-02-21T11:02:05;3.80;;;1.40;;
7919;SDS011;18778;47.610;9.776;2024-02-21T11:04:31;2.13;;;1.40;;
7919;SDS011;18778;47.610;9.776;2024-02-21T11:07:01;2.30;;;1.60;;
7919;SDS011;18778;47.610;9.776;2024-02-21T11:09:32;2.23;;;1.33;;
7919;SDS011;18778;47.610;9.776;2024-02-21T11:11:58;1.37;;;1.27;;
7919;SDS011;18778;47.610;9.776;2024-02-21T11:14:28;3.30;;;1.83;;
7919;SDS011;18778;47.610;9.776;2024-02-21T11:16:57;1.60;;;1.40;;
7919;SDS011;18778;47.610;9.776;2024-02-21T11:19:24;2.80;;;1.67;;
7919;SDS011;18778;47.610;9.776;2024-02-21T11:21:51;1.70;;;1.60;;
7919;SDS011;18778;47.610;9.776;2024-02-21T11:24:34;1.70;;;1.60;;
7919;SDS011;18778;47.610;9.776;2024-02-21T11:27:09;1.80;;;1.37;;
7919;SDS011;18778;47.610;9.776;2024-02-21T11:29:48;1.90;;;1.33;;
7919;SDS011;18778;47.610;9.776;2024-02-21T11:32:17;2.60;;;1.47;;
7919;SDS011;18778;47.610;9.776;2024-02-21T11:37:27;1.77;;;1.60;;
7919;SDS011;18778;47.610;9.776;2024-02-21T11:39:57;1.87;;;1.50;;
7919;SDS011;18778;47.610;9.776;2024-02-21T11:42:24;4.00;;;1.50;;
7919;SDS011;18778;47.610;9.776;2024-02-21T11:44:51;1.90;;;1.50;;
7919;SDS011;18778;47.610;9.776;2024-02-21T11:47:17;7.13;;;1.33;;
7919;SDS011;18778;47.610;9.776;2024-02-21T11:49:46;3.97;;;1.30;;
7919;SDS011;18778;47.610;9.776;2024-02-21T11:52:15;6.53;;;1.57;;
7919;SDS011;18778;47.610;9.776;2024-02-21T11:54:41;1.97;;;1.83;;
7919;SDS011;18778;47.610;9.776;2024-02-21T11:57:07;1.10;;;1.10;;
7919;SDS011;18778;47.610;9.776;2024-02-21T11:59:33;1.50;;;1.40;;
7919;SDS011;18778;47.610;9.776;2024-02-21T12:02:00;2.00;;;1.70;;
7919;SDS011;18778;47.610;9.776;2024-02-21T12:04:28;1.13;;;1.13;;
7919;SDS011;18778;47.610;9.776;2024-02-21T12:06:56;1.60;;;1.40;;
7919;SDS011;18778;47.610;9.776;2024-02-21T12:09:23;1.97;;;1.83;;
7919;SDS011;18778;47.610;9.776;2024-02-21T12:11:59;2.00;;;1.90;;
7919;SDS011;18778;47.610;9.776;2024-02-21T12:14:28;2.83;;;1.60;;
7919;SDS011;18778;47.610;9.776;2024-02-21T12:16:55;1.97;;;1.60;;
7919;SDS011;18778;47.610;9.776;2024-02-21T12:19:21;1.40;;;1.30;;
7919;SDS011;18778;47.610;9.776;2024-02-21T12:21:47;1.97;;;1.47;;
7919;SDS011;18778;47.610;9.776;2024-02-21T12:24:15;1.40;;;1.40;;
7919;SDS011;18778;47.610;9.776;2024-02-21T12:26:45;1.30;;;1.30;;
7919;SDS011;18778;47.610;9.776;2024-02-21T12:29:11;2.67;;;1.70;;
7919;SDS011;18778;47.610;9.776;2024-02-21T12:31:40;3.33;;;1.43;;
7919;SDS011;18778;47.610;9.776;2024-02-21T12:34:05;1.50;;;1.40;;
7919;SDS011;18778;47.610;9.776;2024-02-21T12:36:32;1.40;;;1.20;;
7919;SDS011;18778;47.610;9.776;2024-02-21T12:38:58;2.80;;;1.70;;
7919;SDS011;18778;47.610;9.776;2024-02-21T12:41:24;2.83;;;1.50;;
7919;SDS011;18778;47.610;9.776;2024-02-21T12:43:51;1.30;;;1.13;;
7919;SDS011;18778;47.610;9.776;2024-02-21T12:46:17;1.87;;;1.40;;
7919;SDS011;18778;47.610;9.776;2024-02-21T12:48:43;1.50;;;1.40;;
7919;SDS011;18778;47.610;9.776;2024-02-21T12:51:08;3.60;;;1.37;;
7919;SDS011;18778;47.610;9.776;2024-02-21T12:53:34;1.53;;;1.30;;
7919;SDS011;18778;47.610;9.776;2024-02-21T12:56:00;1.10;;;1.10;;
7919;SDS011;18778;47.610;9.776;2024-02-21T12:58:25;2.07;;;1.10;;
7919;SDS011;18778;47.610;9.776;2024-02-21T13:00:51;1.67;;;1.20;;
7919;SDS011;18778;47.610;9.776;2024-02-21T13:03:18;3.83;;;1.23;;
7919;SDS011;18778;47.610;9.776;2024-02-21T13:05:43;1.30;;;1.20;;
7919;SDS011;18778;47.610;9.776;2024-02-21T13:08:09;2.10;;;1.33;;
7919;SDS011;18778;47.610;9.776;2024-02-21T13:10:36;2.13;;;1.20;;
7919;SDS011;18778;47.610;9.776;2024-02-21T13:13:03;1.50;;;1.20;;
7919;SDS011;18778;47.610;9.776;2024-02-21T13:15:28;1.20;;;1.10;;
7919;SDS011;18778;47.610;9.776;2024-02-21T13:17:55;1.47;;;1.37;;
7919;SDS011;18778;47.610;9.776;2024-02-21T13:20:22;4.83;;;1.30;;
7919;SDS011;18778;47.610;9.776;2024-02-21T13:22:48;1.00;;;1.00;;
7919;SDS011;18778;47.610;9.776;2024-02-21T13:25:13;1.70;;;1.60;;
7919;SDS011;18778;47.610;9.776;2024-02-21T13:27:45;1.07;;;1.07;;
7919;SDS011;18778;47.610;9.776;2024-02-21T13:30:11;1.23;;;1.20;;
7919;SDS011;18778;47.610;9.776;2024-02-21T13:32:37;1.30;;;1.20;;
7919;SDS011;18778;47.610;9.776;2024-02-21T13:35:03;2.67;;;1.30;;
7919;SDS011;18778;47.610;9.776;2024-02-21T13:37:29;1.30;;;1.20;;
7919;SDS011;18778;47.610;9.776;2024-02-21T13:39:54;3.23;;;1.30;;
7919;SDS011;18778;47.610;9.776;2024-02-21T13:42:20;1.40;;;1.30;;
7919;SDS011;18778;47.610;9.776;2024-02-21T13:44:46;1.10;;;1.10;;
7919;SDS011;18778;47.610;9.776;2024-02-21T13:47:15;3.23;;;1.50;;
7919;SDS011;18778;47.610;9.776;2024-02-21T13:49:41;1.37;;;1.10;;
7919;SDS011;18778;47.610;9.776;2024-02-21T13:52:07;2.17;;;1.13;;
7919;SDS011;18778;47.610;9.776;2024-02-21T13:54:34;1.33;;;1.23;;
7919;SDS011;18778;47.610;9.776;2024-02-21T13:57:00;2.77;;;1.33;;
7919;SDS011;18778;47.610;9.776;2024-02-21T13:59:27;1.27;;;1.17;;
7919;SDS011;18778;47.610;9.776;2024-02-21T14:01:53;1.97;;;1.43;;
7919;SDS011;18778;47.610;9.776;2024-02-21T14:04:19;1.80;;;1.40;;
7919;SDS011;18778;47.610;9.776;2024-02-21T14:06:45;1.60;;;1.50;;
7919;SDS011;18778;47.610;9.776;2024-02-21T14:09:12;2.60;;;1.50;;
7919;SDS011;18778;47.610;9.776;2024-02-21T14:11:38;1.80;;;1.27;;
7919;SDS011;18778;47.610;9.776;2024-02-21T14:14:06;3.00;;;1.70;;
7919;SDS011;18778;47.610;9.776;2024-02-21T14:16:32;1.77;;;1.60;;
7919;SDS011;18778;47.610;9.776;2024-02-21T14:18:58;1.37;;;1.27;;
7919;SDS011;18778;47.610;9.776;2024-02-21T14:21:24;1.60;;;1.50;;
7919;SDS011;18778;47.610;9.776;2024-02-21T14:23:50;1.90;;;1.50;;
7919;SDS011;18778;47.610;9.776;2024-02-21T14:26:17;2.87;;;1.50;;
7919;SDS011;18778;47.610;9.776;2024-02-21T14:28:43;3.27;;;1.40;;
7919;SDS011;18778;47.610;9.776;2024-02-21T14:31:10;2.30;;;1.83;;
7919;SDS011;18778;47.610;9.776;2024-02-21T14:33:37;4.67;;;1.67;;
7919;SDS011;18778;47.610;9.776;2024-02-21T14:36:03;1.97;;;1.73;;
7919;SDS011;18778;47.610;9.776;2024-02-21T14:38:29;1.77;;;1.67;;
7919;SDS011;18778;47.610;9.776;2024-02-21T14:40:55;1.60;;;1.50;;
7919;SDS011;18778;47.610;9.776;2024-02-21T14:43:21;2.53;;;1.40;;
7919;SDS011;18778;47.610;9.776;2024-02-21T14:45:47;1.30;;;1.23;;
7919;SDS011;18778;47.610;9.776;2024-02-21T14:48:14;1.60;;;1.50;;
7919;SDS011;18778;47.610;9.776;2024-02-21T14:50:40;4.80;;;1.90;;
7919;SDS011;18778;47.610;9.776;2024-02-21T14:53:07;1.60;;;1.47;;
7919;SDS011;18778;47.610;9.776;2024-02-21T14:55:33;2.40;;;1.53;;
7919;SDS011;18778;47.610;9.776;2024-02-21T14:57:59;1.67;;;1.50;;
7919;SDS011;18778;47.610;9.776;2024-02-21T15:00:26;2.40;;;1.63;;